createdAt,value
2018-08-11T00:00:08.126Z,57.46
2018-08-11T00:00:39.312Z,56.83
2018-08-11T00:01:10.442Z,57.51
2018-08-11T00:01:41.625Z,57.50
2018-08-11T00:02:12.760Z,57.34
2018-08-11T00:02:43.883Z,57.15
2018-08-11T00:03:15.029Z,57.63
2018-08-11T00:03:46.192Z,56.75
2018-08-11T00:04:17.300Z,56.96
2018-08-11T00:04:48.423Z,57.33
2018-08-11T00:05:19.644Z,56.55
2018-08-11T00:05:50.868Z,57.14
2018-08-11T00:06:22.068Z,56.51
2018-08-11T00:06:53.313Z,57.00
2018-08-11T00:07:24.445Z,56.91
2018-08-11T00:07:55.568Z,56.13
2018-08-11T00:08:26.691Z,55.81
2018-08-11T00:08:57.864Z,56.18
2018-08-11T00:09:29.109Z,55.96
2018-08-11T00:10:00.284Z,55.64
2018-08-11T00:10:31.491Z,55.85
2018-08-11T00:11:02.664Z,56.57
2018-08-11T00:11:33.781Z,56.02
2018-08-11T00:12:05.005Z,56.09
2018-08-11T00:12:36.181Z,56.05
2018-08-11T00:13:07.320Z,56.63
2018-08-11T00:13:39.209Z,56.69
2018-08-11T00:14:10.395Z,56.85
2018-08-11T00:14:41.606Z,56.56
2018-08-11T00:15:12.797Z,56.71
2018-08-11T00:15:44.016Z,56.89
2018-08-11T00:16:15.184Z,56.80
2018-08-11T00:16:46.364Z,56.54
2018-08-11T00:17:17.589Z,56.46
2018-08-11T00:17:48.710Z,57.23
2018-08-11T00:18:20.106Z,57.12
2018-08-11T00:18:51.289Z,56.97
2018-08-11T00:19:22.439Z,56.90
2018-08-11T00:19:53.607Z,57.00
2018-08-11T00:20:24.780Z,57.01
2018-08-11T00:20:55.964Z,57.39
2018-08-11T00:21:27.134Z,56.48
2018-08-11T00:21:58.240Z,57.34
2018-08-11T00:22:29.344Z,57.03
2018-08-11T00:23:00.458Z,57.65
2018-08-11T00:23:31.629Z,56.97
2018-08-11T00:24:02.741Z,57.44
2018-08-11T00:24:34.085Z,57.66
2018-08-11T00:25:05.845Z,57.04
2018-08-11T00:25:37.014Z,56.99
2018-08-11T00:26:08.133Z,57.45
2018-08-11T00:26:39.251Z,57.24
2018-08-11T00:27:10.360Z,58.24
2018-08-11T00:27:41.544Z,57.63
2018-08-11T00:28:12.845Z,58.34
2018-08-11T00:28:43.969Z,57.54
2018-08-11T00:29:15.225Z,57.48
2018-08-11T00:29:46.348Z,57.70
2018-08-11T00:30:17.516Z,57.60
2018-08-11T00:30:48.627Z,58.32
2018-08-11T00:31:19.744Z,57.83
2018-08-11T00:31:50.948Z,58.38
2018-08-11T00:32:22.064Z,57.90
2018-08-11T00:32:53.180Z,57.92
2018-08-11T00:33:24.296Z,58.79
2018-08-11T00:33:55.403Z,58.16
2018-08-11T00:34:26.503Z,58.63
2018-08-11T00:34:57.616Z,58.74
2018-08-11T00:35:28.813Z,59.22
2018-08-11T00:35:59.981Z,58.92
2018-08-11T00:36:31.167Z,59.50
2018-08-11T00:37:02.307Z,59.42
2018-08-11T00:37:33.532Z,59.39
2018-08-11T00:38:04.719Z,59.13
2018-08-11T00:38:35.890Z,58.84
2018-08-11T00:39:07.084Z,58.80
2018-08-11T00:39:38.197Z,58.83
2018-08-11T00:40:09.377Z,59.37
2018-08-11T00:40:40.598Z,59.03
2018-08-11T00:41:11.716Z,58.64
2018-08-11T00:41:42.887Z,58.53
2018-08-11T00:42:14.052Z,58.83
2018-08-11T00:42:45.208Z,59.27
2018-08-11T00:43:16.388Z,58.81
2018-08-11T00:43:47.571Z,59.08
2018-08-11T00:44:18.763Z,58.95
2018-08-11T00:44:49.928Z,59.08
2018-08-11T00:45:21.136Z,58.79
2018-08-11T00:45:52.284Z,59.05
2018-08-11T00:46:23.460Z,59.51
2018-08-11T00:46:54.621Z,58.76
2018-08-11T00:47:25.804Z,59.47
2018-08-11T00:47:56.913Z,59.43
2018-08-11T00:48:28.084Z,58.94
2018-08-11T00:49:00.252Z,58.97
2018-08-11T00:49:31.452Z,58.80
2018-08-11T00:50:02.579Z,58.91
2018-08-11T00:50:33.688Z,59.45
2018-08-11T00:51:04.946Z,59.08
2018-08-11T00:51:36.182Z,59.60
2018-08-11T00:52:07.343Z,59.21
2018-08-11T00:52:38.451Z,59.27
2018-08-11T00:53:09.660Z,60.02
2018-08-11T00:53:40.890Z,59.34
2018-08-11T00:54:12.015Z,59.29
2018-08-11T00:54:43.187Z,59.55
2018-08-11T00:55:14.419Z,59.95
2018-08-11T00:55:45.611Z,60.16
2018-08-11T00:56:16.832Z,60.18
2018-08-11T00:56:47.952Z,60.20
2018-08-11T00:57:19.076Z,60.21
2018-08-11T00:57:50.251Z,59.71
2018-08-11T00:58:21.415Z,60.19
2018-08-11T00:58:52.581Z,60.04
2018-08-11T00:59:23.784Z,59.68
2018-08-11T00:59:54.911Z,59.83
2018-08-11T01:00:26.027Z,59.50
2018-08-11T01:00:57.137Z,59.05
2018-08-11T01:01:28.252Z,59.32
2018-08-11T01:01:59.412Z,58.97
2018-08-11T01:02:30.640Z,59.59
2018-08-11T01:03:01.733Z,58.96
2018-08-11T01:03:32.948Z,58.96
2018-08-11T01:04:04.069Z,59.13
2018-08-11T01:04:35.228Z,58.87
2018-08-11T01:05:06.396Z,59.40
2018-08-11T01:05:37.520Z,58.98
2018-08-11T01:06:08.632Z,59.36
2018-08-11T01:06:39.743Z,58.52
2018-08-11T01:07:10.849Z,58.51
2018-08-11T01:07:41.964Z,58.50
2018-08-11T01:08:13.075Z,59.12
2018-08-11T01:08:44.218Z,58.60
2018-08-11T01:09:15.334Z,58.56
2018-08-11T01:09:46.449Z,58.73
2018-08-11T01:10:17.608Z,59.31
2018-08-11T01:10:48.753Z,59.41
2018-08-11T01:11:19.864Z,58.92
2018-08-11T01:11:50.975Z,59.35
2018-08-11T01:12:22.080Z,59.22
2018-08-11T01:12:53.209Z,59.61
2018-08-11T01:13:24.363Z,59.42
2018-08-11T01:13:55.476Z,58.87
2018-08-11T01:14:26.579Z,59.11
2018-08-11T01:14:57.694Z,59.69
2018-08-11T01:15:28.840Z,59.07
2018-08-11T01:15:59.948Z,59.50
2018-08-11T01:16:31.068Z,59.69
2018-08-11T01:17:02.182Z,59.33
2018-08-11T01:17:33.299Z,60.08
2018-08-11T01:18:04.425Z,59.53
2018-08-11T01:18:35.653Z,59.63
2018-08-11T01:19:06.836Z,60.05
2018-08-11T01:19:37.964Z,60.06
2018-08-11T01:20:09.080Z,60.22
2018-08-11T01:20:40.275Z,60.12
2018-08-11T01:21:11.385Z,60.08
2018-08-11T01:21:42.549Z,60.78
2018-08-11T01:22:13.840Z,60.35
2018-08-11T01:22:44.971Z,60.77
2018-08-11T01:23:16.209Z,61.11
2018-08-11T01:23:47.464Z,61.22
2018-08-11T01:24:18.580Z,60.89
2018-08-11T01:24:49.752Z,61.63
2018-08-11T01:25:20.994Z,61.40
2018-08-11T01:25:52.186Z,62.02
2018-08-11T01:26:23.308Z,61.87
2018-08-11T01:26:54.476Z,62.18
2018-08-11T01:27:25.715Z,61.92
2018-08-11T01:27:56.830Z,62.32
2018-08-11T01:28:27.984Z,62.35
2018-08-11T01:28:59.091Z,62.88
2018-08-11T01:29:30.310Z,62.22
2018-08-11T01:30:01.428Z,62.91
2018-08-11T01:30:33.976Z,62.41
2018-08-11T01:31:05.157Z,62.90
2018-08-11T01:31:36.278Z,62.81
2018-08-11T01:32:07.390Z,62.95
2018-08-11T01:32:38.499Z,62.44
2018-08-11T01:33:09.669Z,63.13
2018-08-11T01:33:40.815Z,62.34
2018-08-11T01:34:11.928Z,62.72
2018-08-11T01:34:43.110Z,62.86
2018-08-11T01:35:14.307Z,63.33
2018-08-11T01:35:45.488Z,63.73
2018-08-11T01:36:16.656Z,63.36
2018-08-11T01:36:47.783Z,63.57
2018-08-11T01:37:18.907Z,63.51
2018-08-11T01:37:50.115Z,64.46
2018-08-11T01:38:21.232Z,64.67
2018-08-11T01:38:52.384Z,64.06
2018-08-11T01:39:23.649Z,64.70
2018-08-11T01:39:54.827Z,64.36
2018-08-11T01:40:25.949Z,64.88
2018-08-11T01:40:57.068Z,64.76
2018-08-11T01:41:28.236Z,64.85
2018-08-11T01:41:59.368Z,64.95
2018-08-11T01:42:30.484Z,65.41
2018-08-11T01:43:01.705Z,65.44
2018-08-11T01:43:32.879Z,65.35
2018-08-11T01:44:04.113Z,64.98
2018-08-11T01:44:35.188Z,65.11
2018-08-11T01:45:06.408Z,65.58
2018-08-11T01:45:37.535Z,65.36
2018-08-11T01:46:08.658Z,65.67
2018-08-11T01:46:39.776Z,65.31
2018-08-11T01:47:11.000Z,65.63
2018-08-11T01:47:42.175Z,66.00
2018-08-11T01:48:13.343Z,65.71
2018-08-11T01:48:44.464Z,65.49
2018-08-11T01:49:15.571Z,65.69
2018-08-11T01:49:46.683Z,64.85
2018-08-11T01:50:17.791Z,65.56
2018-08-11T01:50:48.909Z,64.79
2018-08-11T01:51:20.130Z,65.69
2018-08-11T01:51:51.262Z,66.40
2018-08-11T01:52:22.480Z,65.79
2018-08-11T01:52:53.596Z,65.69
2018-08-11T01:53:24.769Z,65.87
2018-08-11T01:53:55.940Z,65.75
2018-08-11T01:54:27.157Z,66.02
2018-08-11T01:54:58.383Z,65.88
2018-08-11T01:55:29.503Z,65.50
2018-08-11T01:56:00.667Z,66.04
2018-08-11T01:56:31.792Z,65.93
2018-08-11T01:57:03.016Z,66.16
2018-08-11T01:57:34.231Z,66.14
2018-08-11T01:58:05.399Z,65.52
2018-08-11T01:58:36.523Z,65.44
2018-08-11T01:59:07.668Z,66.09
2018-08-11T01:59:38.783Z,65.86
2018-08-11T02:00:09.892Z,66.34
2018-08-11T02:00:41.058Z,65.79
2018-08-11T02:01:12.214Z,66.31
2018-08-11T02:01:43.387Z,65.97
2018-08-11T02:02:14.495Z,65.65
2018-08-11T02:02:45.765Z,65.63
2018-08-11T02:03:16.944Z,66.21
2018-08-11T02:03:48.069Z,66.14
2018-08-11T02:04:19.228Z,66.06
2018-08-11T02:04:50.349Z,66.55
2018-08-11T02:05:21.527Z,66.36
2018-08-11T02:05:52.632Z,66.36
2018-08-11T02:06:23.743Z,66.16
2018-08-11T02:06:54.860Z,66.52
2018-08-11T02:07:25.975Z,65.76
2018-08-11T02:07:57.215Z,66.18
2018-08-11T02:08:28.389Z,65.84
2018-08-11T02:08:59.508Z,65.98
2018-08-11T02:09:30.642Z,66.40
2018-08-11T02:10:01.757Z,66.46
2018-08-11T02:10:32.922Z,66.12
2018-08-11T02:11:04.030Z,66.65
2018-08-11T02:11:35.194Z,66.25
2018-08-11T02:12:06.321Z,66.29
2018-08-11T02:12:37.485Z,66.26
2018-08-11T02:13:08.636Z,66.45
2018-08-11T02:13:39.805Z,66.85
2018-08-11T02:14:10.923Z,66.93
2018-08-11T02:14:42.116Z,66.92
2018-08-11T02:15:13.268Z,67.40
2018-08-11T02:15:44.436Z,66.79
2018-08-11T02:16:15.559Z,67.42
2018-08-11T02:16:46.725Z,67.03
2018-08-11T02:17:17.843Z,67.22
2018-08-11T02:17:48.999Z,67.05
2018-08-11T02:18:20.112Z,66.91
2018-08-11T02:18:51.221Z,67.37
2018-08-11T02:19:22.341Z,67.38
2018-08-11T02:19:53.528Z,67.87
2018-08-11T02:20:24.708Z,67.86
2018-08-11T02:20:55.891Z,67.42
2018-08-11T02:21:27.007Z,67.08
2018-08-11T02:21:58.159Z,66.82
2018-08-11T02:22:29.264Z,67.41
2018-08-11T02:23:00.429Z,67.35
2018-08-11T02:23:31.543Z,67.19
2018-08-11T02:24:02.658Z,67.95
2018-08-11T02:24:33.881Z,67.49
2018-08-11T02:25:05.001Z,67.83
2018-08-11T02:25:36.123Z,67.98
2018-08-11T02:26:07.235Z,67.67
2018-08-11T02:26:38.400Z,67.17
2018-08-11T02:27:09.561Z,67.80
2018-08-11T02:27:40.745Z,67.98
2018-08-11T02:28:11.900Z,68.00
2018-08-11T02:28:43.072Z,68.06
2018-08-11T02:29:14.188Z,67.55
2018-08-11T02:29:45.313Z,67.53
2018-08-11T02:30:16.484Z,67.59
2018-08-11T02:30:47.676Z,68.11
2018-08-11T02:31:18.796Z,68.04
2018-08-11T02:31:49.961Z,67.89
2018-08-11T02:32:21.140Z,67.76
2018-08-11T02:32:52.357Z,68.26
2018-08-11T02:33:23.613Z,68.19
2018-08-11T02:33:54.842Z,67.61
2018-08-11T02:34:26.084Z,68.23
2018-08-11T02:34:57.203Z,67.98
2018-08-11T02:35:28.345Z,67.96
2018-08-11T02:35:59.581Z,67.43
2018-08-11T02:36:30.768Z,67.30
2018-08-11T02:37:02.244Z,67.39
2018-08-11T02:37:33.379Z,68.24
2018-08-11T02:38:04.581Z,67.97
2018-08-11T02:38:35.728Z,68.00
2018-08-11T02:39:06.843Z,68.36
2018-08-11T02:39:38.021Z,68.49
2018-08-11T02:40:09.239Z,68.40
2018-08-11T02:40:40.476Z,68.65
2018-08-11T02:41:11.616Z,68.54
2018-08-11T02:41:42.727Z,68.01
2018-08-11T02:43:48.200Z,69.29
2018-08-11T02:44:19.396Z,69.32
2018-08-11T02:44:50.518Z,69.47
2018-08-11T02:45:21.742Z,70.16
2018-08-11T02:45:52.880Z,69.46
2018-08-11T02:46:23.991Z,69.90
2018-08-11T02:46:55.156Z,69.52
2018-08-11T02:47:26.280Z,69.95
2018-08-11T02:47:57.403Z,70.36
2018-08-11T02:48:28.586Z,70.13
2018-08-11T02:48:59.768Z,70.10
2018-08-11T02:49:30.972Z,70.48
2018-08-11T02:50:02.148Z,70.02
2018-08-11T02:50:33.426Z,70.45
2018-08-11T02:51:04.618Z,70.00
2018-08-11T02:51:35.797Z,70.00
2018-08-11T02:52:06.981Z,70.06
2018-08-11T02:52:38.108Z,69.94
2018-08-11T02:53:09.338Z,70.30
2018-08-11T02:53:40.551Z,69.77
2018-08-11T02:54:11.672Z,69.75
2018-08-11T02:54:42.788Z,70.14
2018-08-11T02:55:13.899Z,69.67
2018-08-11T02:55:45.048Z,69.45
2018-08-11T02:56:16.261Z,70.02
2018-08-11T02:56:47.387Z,69.57
2018-08-11T02:57:18.619Z,69.79
2018-08-11T02:57:49.758Z,69.80
2018-08-11T02:58:20.878Z,69.31
2018-08-11T02:58:52.063Z,69.91
2018-08-11T02:59:23.227Z,70.31
2018-08-11T02:59:54.352Z,69.94
2018-08-11T03:00:25.514Z,69.69
2018-08-11T03:00:57.324Z,70.21
2018-08-11T03:01:28.530Z,70.35
2018-08-11T03:01:59.709Z,70.08
2018-08-11T03:02:30.980Z,70.18
2018-08-11T03:03:02.066Z,70.69
2018-08-11T03:03:33.258Z,70.50
2018-08-11T03:04:04.388Z,70.70
2018-08-11T03:04:35.565Z,71.07
2018-08-11T03:05:06.748Z,71.15
2018-08-11T03:05:37.921Z,70.77
2018-08-11T03:06:09.078Z,70.54
2018-08-11T03:06:40.215Z,71.01
2018-08-11T03:07:11.366Z,70.80
2018-08-11T03:07:42.539Z,71.21
2018-08-11T03:08:13.666Z,70.59
2018-08-11T03:08:44.865Z,71.09
2018-08-11T03:09:15.995Z,70.53
2018-08-11T03:09:47.224Z,71.09
2018-08-11T03:10:18.346Z,70.50
2018-08-11T03:10:49.532Z,70.32
2018-08-11T03:11:20.716Z,70.13
2018-08-11T03:11:51.950Z,70.78
2018-08-11T03:12:23.175Z,70.63
2018-08-11T03:12:54.417Z,70.31
2018-08-11T03:13:25.599Z,69.76
2018-08-11T03:13:56.802Z,70.50
2018-08-11T03:14:27.934Z,70.17
2018-08-11T03:14:59.116Z,70.52
2018-08-11T03:15:30.237Z,70.34
2018-08-11T03:16:01.377Z,70.35
2018-08-11T03:16:32.519Z,70.64
2018-08-11T03:17:03.734Z,70.69
2018-08-11T03:17:34.892Z,71.00
2018-08-11T03:18:06.069Z,70.65
2018-08-11T03:18:37.200Z,70.52
2018-08-11T03:19:08.341Z,70.75
2018-08-11T03:19:39.454Z,71.16
2018-08-11T03:20:10.574Z,71.17
2018-08-11T03:20:41.731Z,71.45
2018-08-11T03:21:12.945Z,70.90
2018-08-11T03:21:44.114Z,71.28
2018-08-11T03:22:15.236Z,71.14
2018-08-11T03:22:46.400Z,71.14
2018-08-11T03:23:17.566Z,71.37
2018-08-11T03:23:48.820Z,70.85
2018-08-11T03:24:20.025Z,70.57
2018-08-11T03:24:51.212Z,70.51
2018-08-11T03:25:22.376Z,70.53
2018-08-11T03:25:53.568Z,70.53
2018-08-11T03:26:24.692Z,71.02
2018-08-11T03:26:55.856Z,70.49
2018-08-11T03:27:27.108Z,71.08
2018-08-11T03:27:58.336Z,70.52
2018-08-11T03:28:29.467Z,70.46
2018-08-11T03:29:00.593Z,70.51
2018-08-11T03:29:31.716Z,70.68
2018-08-11T03:30:02.945Z,70.81
2018-08-11T03:30:34.100Z,71.11
2018-08-11T03:31:05.224Z,70.81
2018-08-11T03:31:36.461Z,70.87
2018-08-11T03:32:07.708Z,71.01
2018-08-11T03:32:38.836Z,70.96
2018-08-11T03:33:10.057Z,70.56
2018-08-11T03:33:41.277Z,70.52
2018-08-11T03:34:12.388Z,70.47
2018-08-11T03:34:43.517Z,70.56
2018-08-11T03:35:14.750Z,70.61
2018-08-11T03:35:45.936Z,70.82
2018-08-11T03:36:17.055Z,70.44
2018-08-11T03:36:48.226Z,70.37
2018-08-11T03:37:19.378Z,70.08
2018-08-11T03:37:50.560Z,69.70
2018-08-11T03:38:21.707Z,69.28
2018-08-11T03:38:52.884Z,69.38
2018-08-11T03:39:24.014Z,69.55
2018-08-11T03:39:55.252Z,69.12
2018-08-11T03:40:26.379Z,68.39
2018-08-11T03:40:57.491Z,68.76
2018-08-11T03:41:28.608Z,68.68
2018-08-11T03:41:59.722Z,68.37
2018-08-11T03:42:30.954Z,68.98
2018-08-11T03:43:02.084Z,68.83
2018-08-11T03:43:33.284Z,69.19
2018-08-11T03:44:04.472Z,68.55
2018-08-11T03:44:35.705Z,68.84
2018-08-11T03:45:06.944Z,69.14
2018-08-11T03:45:38.137Z,69.27
2018-08-11T03:46:09.283Z,69.37
2018-08-11T03:46:40.393Z,68.73
2018-08-11T03:47:11.624Z,69.49
2018-08-11T03:47:42.755Z,69.16
2018-08-11T03:48:13.921Z,69.54
2018-08-11T03:48:45.096Z,69.34
2018-08-11T03:49:16.277Z,69.25
2018-08-11T03:49:47.406Z,68.60
2018-08-11T03:50:18.681Z,68.63
2018-08-11T03:50:49.831Z,68.07
2018-08-11T03:51:21.015Z,68.15
2018-08-11T03:51:52.136Z,68.08
2018-08-11T03:52:23.264Z,68.84
2018-08-11T03:52:54.389Z,68.07
2018-08-11T03:53:25.625Z,67.95
2018-08-11T03:53:56.804Z,68.20
2018-08-11T03:54:27.981Z,68.44
2018-08-11T03:54:59.157Z,69.02
2018-08-11T03:55:30.329Z,68.81
2018-08-11T03:56:01.561Z,69.35
2018-08-11T03:56:32.696Z,69.28
2018-08-11T03:57:03.812Z,69.28
2018-08-11T03:57:34.983Z,68.70
2018-08-11T03:58:06.135Z,69.03
2018-08-11T03:58:37.265Z,68.57
2018-08-11T03:59:08.459Z,68.19
2018-08-11T03:59:39.638Z,67.87
2018-08-11T04:00:11.103Z,66.44
2018-08-11T04:00:42.267Z,65.39
2018-08-11T04:01:13.388Z,65.21
2018-08-11T04:01:44.508Z,64.39
2018-08-11T04:02:15.627Z,63.56
2018-08-11T04:02:46.747Z,62.31
2018-08-11T04:03:17.875Z,61.42
2018-08-11T04:03:49.037Z,61.51
2018-08-11T04:04:20.152Z,60.48
2018-08-11T04:04:51.268Z,59.49
2018-08-11T04:05:22.424Z,59.10
2018-08-11T04:05:53.601Z,58.49
2018-08-11T04:06:24.783Z,57.17
2018-08-11T04:06:55.902Z,56.32
2018-08-11T04:07:27.895Z,55.69
2018-08-11T04:07:59.003Z,55.87
2018-08-11T04:08:30.167Z,55.16
2018-08-11T04:09:01.333Z,54.17
2018-08-11T04:09:32.447Z,54.45
2018-08-11T04:10:04.050Z,53.66
2018-08-11T04:10:35.205Z,53.50
2018-08-11T04:11:06.316Z,53.59
2018-08-11T04:11:37.485Z,53.73
2018-08-11T04:12:08.721Z,54.51
2018-08-11T04:12:39.951Z,55.07
2018-08-11T04:13:11.182Z,55.33
2018-08-11T04:13:42.315Z,55.27
2018-08-11T04:14:13.479Z,55.26
2018-08-11T04:14:44.647Z,55.72
2018-08-11T04:15:15.868Z,56.10
2018-08-11T04:15:47.036Z,57.16
2018-08-11T04:16:18.208Z,57.33
2018-08-11T04:16:49.315Z,57.80
2018-08-11T04:17:20.427Z,58.09
2018-08-11T04:17:51.649Z,57.56
2018-08-11T04:18:22.767Z,57.86
2018-08-11T04:18:53.896Z,58.04
2018-08-11T04:19:25.139Z,57.92
2018-08-11T04:19:56.259Z,57.73
2018-08-11T04:20:27.419Z,58.04
2018-08-11T04:20:58.535Z,57.85
2018-08-11T04:21:29.679Z,57.46
2018-08-11T04:22:00.791Z,57.71
2018-08-11T04:22:31.919Z,57.80
2018-08-11T04:23:03.071Z,57.92
2018-08-11T04:23:34.288Z,58.17
2018-08-11T04:24:05.493Z,58.17
2018-08-11T04:24:36.613Z,58.45
2018-08-11T04:25:07.788Z,59.28
2018-08-11T04:25:38.969Z,58.76
2018-08-11T04:26:10.131Z,59.13
2018-08-11T04:26:41.368Z,58.64
2018-08-11T04:27:12.487Z,59.42
2018-08-11T04:27:43.591Z,59.04
2018-08-11T04:28:14.795Z,59.19
2018-08-11T04:28:45.966Z,58.87
2018-08-11T04:29:17.168Z,58.89
2018-08-11T04:29:48.329Z,58.81
2018-08-11T04:30:19.510Z,58.75
2018-08-11T04:30:50.784Z,59.60
2018-08-11T04:31:21.920Z,59.13
2018-08-11T04:31:53.184Z,59.72
2018-08-11T04:32:24.354Z,59.72
2018-08-11T04:32:55.528Z,59.87
2018-08-11T04:33:26.709Z,60.01
2018-08-11T04:33:57.926Z,60.44
2018-08-11T04:34:29.103Z,60.69
2018-08-11T04:35:00.359Z,60.62
2018-08-11T04:35:31.544Z,60.80
2018-08-11T04:36:02.701Z,60.82
2018-08-11T04:36:33.808Z,61.96
2018-08-11T04:37:05.050Z,61.37
2018-08-11T04:37:36.212Z,61.87
2018-08-11T04:38:07.328Z,61.88
2018-08-11T04:38:38.452Z,61.39
2018-08-11T04:39:09.674Z,62.00
2018-08-11T04:39:40.936Z,61.37
2018-08-11T04:40:12.173Z,62.28
2018-08-11T04:40:43.293Z,61.94
2018-08-11T04:41:14.489Z,62.17
2018-08-11T04:41:45.669Z,62.71
2018-08-11T04:42:16.804Z,62.56
2018-08-11T04:42:48.004Z,62.30
2018-08-11T04:43:19.183Z,62.22
2018-08-11T04:43:50.344Z,62.63
2018-08-11T04:44:21.452Z,62.84
2018-08-11T04:44:52.641Z,62.75
2018-08-11T04:45:23.818Z,62.80
2018-08-11T04:45:54.988Z,62.83
2018-08-11T04:46:26.172Z,63.07
2018-08-11T04:46:57.385Z,62.39
2018-08-11T04:47:29.134Z,62.95
2018-08-11T04:48:00.242Z,62.78
2018-08-11T04:48:31.352Z,62.55
2018-08-11T04:49:02.526Z,62.67
2018-08-11T04:49:33.665Z,63.25
2018-08-11T04:50:04.842Z,63.16
2018-08-11T04:50:35.959Z,62.71
2018-08-11T04:51:07.126Z,62.47
2018-08-11T04:51:38.368Z,62.99
2018-08-11T04:52:09.548Z,62.71
2018-08-11T04:52:40.722Z,62.77
2018-08-11T04:53:12.459Z,61.83
2018-08-11T04:53:43.668Z,61.54
2018-08-11T04:54:14.780Z,62.13
2018-08-11T04:54:46.001Z,62.06
2018-08-11T04:55:17.181Z,61.18
2018-08-11T04:55:48.396Z,61.62
2018-08-11T04:56:19.575Z,61.32
2018-08-11T04:56:50.687Z,61.69
2018-08-11T04:57:21.866Z,61.07
2018-08-11T04:57:52.985Z,61.55
2018-08-11T04:58:24.092Z,60.62
2018-08-11T04:58:55.266Z,60.56
2018-08-11T04:59:26.447Z,60.27
2018-08-11T04:59:57.598Z,60.04
2018-08-11T05:00:28.767Z,59.81
2018-08-11T05:00:59.931Z,58.42
2018-08-11T05:01:31.116Z,58.12
2018-08-11T05:02:02.284Z,57.43
2018-08-11T05:02:33.407Z,55.64
2018-08-11T05:03:04.520Z,55.28
2018-08-11T05:03:35.698Z,53.74
2018-08-11T05:04:06.915Z,53.13
2018-08-11T05:04:38.092Z,53.05
2018-08-11T05:05:09.233Z,52.66
2018-08-11T05:05:40.410Z,53.33
2018-08-11T05:06:11.588Z,53.51
2018-08-11T05:06:42.761Z,53.44
2018-08-11T05:07:13.872Z,53.38
2018-08-11T05:07:45.001Z,53.29
2018-08-11T05:08:16.169Z,52.45
2018-08-11T05:08:47.344Z,52.55
2018-08-11T05:09:18.511Z,52.46
2018-08-11T05:09:49.679Z,50.44
2018-08-11T05:10:20.876Z,50.65
2018-08-11T05:10:51.995Z,48.96
2018-08-11T05:11:23.165Z,48.27
2018-08-11T05:11:54.373Z,47.55
2018-08-11T05:12:25.489Z,46.25
2018-08-11T05:12:56.712Z,45.06
2018-08-11T05:13:27.843Z,43.82
2018-08-11T05:13:58.955Z,42.30
2018-08-11T05:14:30.105Z,41.82
2018-08-11T05:15:01.223Z,41.74
2018-08-11T05:15:32.403Z,40.93
2018-08-11T05:16:03.708Z,40.92
2018-08-11T05:16:34.941Z,39.39
2018-08-11T05:17:06.060Z,38.85
2018-08-11T05:17:37.228Z,38.71
2018-08-11T05:18:08.404Z,38.54
2018-08-11T05:18:39.531Z,38.28
2018-08-11T05:19:10.705Z,37.74
2018-08-11T05:19:41.880Z,37.79
2018-08-11T05:20:13.011Z,36.96
2018-08-11T05:20:44.134Z,37.40
2018-08-11T05:21:15.298Z,36.96
2018-08-11T05:21:46.620Z,37.00
2018-08-11T05:22:17.732Z,36.53
2018-08-11T05:22:48.902Z,35.85
2018-08-11T05:23:20.073Z,36.14
2018-08-11T05:23:51.196Z,35.73
2018-08-11T05:24:22.310Z,35.59
2018-08-11T05:24:53.472Z,35.40
2018-08-11T05:25:24.651Z,34.93
2018-08-11T05:25:55.772Z,34.98
2018-08-11T05:26:26.957Z,35.01
2018-08-11T05:26:58.119Z,34.90
2018-08-11T05:27:29.236Z,34.35
2018-08-11T05:28:00.361Z,34.37
2018-08-11T05:28:31.537Z,34.46
2018-08-11T05:29:02.662Z,34.66
2018-08-11T05:29:33.772Z,34.83
2018-08-11T05:30:04.931Z,34.59
2018-08-11T05:30:36.063Z,34.50
2018-08-11T05:31:07.209Z,34.22
2018-08-11T05:31:38.339Z,34.23
2018-08-11T05:32:09.460Z,34.72
2018-08-11T05:32:40.580Z,34.74
2018-08-11T05:33:11.765Z,35.07
2018-08-11T05:33:42.880Z,35.03
2018-08-11T05:34:14.052Z,35.05
2018-08-11T05:34:45.181Z,34.68
2018-08-11T05:35:16.353Z,35.07
2018-08-11T05:35:47.523Z,35.00
2018-08-11T05:36:18.716Z,34.53
2018-08-11T05:36:49.959Z,34.86
2018-08-11T05:37:21.088Z,35.12
2018-08-11T05:37:52.353Z,35.64
2018-08-11T05:38:23.537Z,35.22
2018-08-11T05:38:54.707Z,35.69
2018-08-11T05:39:25.850Z,36.69
2018-08-11T05:39:56.963Z,37.02
2018-08-11T05:40:28.147Z,36.52
2018-08-11T05:40:59.295Z,36.35
2018-08-11T05:41:30.564Z,36.13
2018-08-11T05:42:01.702Z,36.28
2018-08-11T05:42:32.887Z,36.49
2018-08-11T05:43:04.000Z,36.21
2018-08-11T05:43:35.165Z,35.84
2018-08-11T05:44:06.287Z,36.44
2018-08-11T05:44:37.416Z,35.94
2018-08-11T05:45:08.642Z,35.76
2018-08-11T05:45:39.766Z,35.66
2018-08-11T05:46:10.930Z,35.43
2018-08-11T05:46:42.058Z,35.31
2018-08-11T05:47:13.234Z,35.75
2018-08-11T05:47:44.365Z,35.75
2018-08-11T05:48:15.549Z,35.92
2018-08-11T05:48:46.724Z,36.07
2018-08-11T05:49:17.839Z,36.55
2018-08-11T05:49:49.049Z,36.42
2018-08-11T05:50:20.179Z,36.67
2018-08-11T05:50:51.299Z,36.36
2018-08-11T05:51:22.536Z,36.44
2018-08-11T05:51:53.671Z,36.97
2018-08-11T05:52:24.787Z,37.23
2018-08-11T05:52:55.980Z,38.00
2018-08-11T05:53:27.091Z,38.47
2018-08-11T05:53:58.322Z,39.03
2018-08-11T05:54:29.508Z,39.34
2018-08-11T05:55:00.621Z,39.38
2018-08-11T05:55:31.789Z,39.10
2018-08-11T05:56:03.004Z,39.02
2018-08-11T05:56:34.160Z,39.39
2018-08-11T05:57:05.329Z,39.71
2018-08-11T05:57:36.443Z,39.68
2018-08-11T05:58:07.558Z,40.02
2018-08-11T05:58:38.775Z,40.58
2018-08-11T05:59:09.955Z,41.09
2018-08-11T05:59:41.182Z,41.16
2018-08-11T06:00:12.357Z,41.35
2018-08-11T06:00:43.537Z,41.43
2018-08-11T06:01:14.764Z,41.17
2018-08-11T06:01:45.925Z,41.18
2018-08-11T06:02:17.101Z,40.80
2018-08-11T06:02:48.344Z,40.45
2018-08-11T06:03:19.491Z,40.20
2018-08-11T06:03:50.609Z,40.70
2018-08-11T06:04:21.723Z,41.01
2018-08-11T06:04:52.851Z,41.08
2018-08-11T06:05:24.035Z,41.37
2018-08-11T06:05:55.252Z,41.63
2018-08-11T06:06:26.492Z,41.72
2018-08-11T06:06:57.664Z,41.80
2018-08-11T06:07:28.849Z,41.94
2018-08-11T06:07:59.972Z,42.37
2018-08-11T06:08:31.192Z,42.73
2018-08-11T06:09:02.310Z,42.76
2018-08-11T06:09:33.440Z,42.67
2018-08-11T06:10:04.619Z,42.73
2018-08-11T06:10:36.392Z,42.84
2018-08-11T06:11:07.565Z,42.51
2018-08-11T06:11:38.796Z,42.11
2018-08-11T06:12:09.955Z,41.96
2018-08-11T06:12:41.180Z,42.24
2018-08-11T06:13:12.364Z,42.34
2018-08-11T06:13:43.489Z,42.35
2018-08-11T06:14:14.600Z,42.47
2018-08-11T06:14:45.943Z,42.39
2018-08-11T06:15:17.133Z,42.29
2018-08-11T06:15:48.260Z,42.27
2018-08-11T06:16:19.424Z,42.60
2018-08-11T06:16:50.580Z,42.73
2018-08-11T06:17:21.746Z,42.82
2018-08-11T06:17:52.990Z,43.09
2018-08-11T06:18:24.110Z,43.25
2018-08-11T06:18:55.231Z,43.45
2018-08-11T06:19:26.343Z,42.99
2018-08-11T06:19:57.509Z,43.36
2018-08-11T06:20:28.683Z,43.03
2018-08-11T06:20:59.882Z,43.15
2018-08-11T06:21:30.984Z,42.99
2018-08-11T06:22:02.104Z,42.82
2018-08-11T06:22:33.215Z,43.17
2018-08-11T06:23:04.331Z,43.02
2018-08-11T06:23:35.439Z,43.00
2018-08-11T06:24:06.643Z,42.76
2018-08-11T06:24:37.823Z,42.27
2018-08-11T06:25:09.046Z,42.20
2018-08-11T06:25:40.204Z,42.29
2018-08-11T06:26:11.322Z,42.67
2018-08-11T06:26:42.439Z,42.56
2018-08-11T06:27:14.217Z,42.06
2018-08-11T06:27:45.345Z,42.27
2018-08-11T06:28:16.451Z,42.56
2018-08-11T06:28:47.724Z,42.55
2018-08-11T06:29:18.946Z,42.83
2018-08-11T06:29:50.070Z,43.02
2018-08-11T06:30:21.292Z,42.75
2018-08-11T06:30:52.416Z,42.23
2018-08-11T06:31:23.679Z,42.18
2018-08-11T06:31:54.828Z,42.24
2018-08-11T06:32:25.949Z,41.76
2018-08-11T06:32:57.073Z,41.85
2018-08-11T06:33:28.254Z,41.58
2018-08-11T06:33:59.424Z,41.52
2018-08-11T06:34:30.611Z,41.75
2018-08-11T06:35:01.736Z,41.75
2018-08-11T06:35:32.885Z,41.26
2018-08-11T06:36:04.017Z,41.37
2018-08-11T06:36:35.195Z,41.27
2018-08-11T06:37:06.360Z,41.78
2018-08-11T06:37:37.543Z,41.91
2018-08-11T06:38:08.706Z,41.88
2018-08-11T06:38:39.832Z,41.70
2018-08-11T06:39:10.991Z,41.59
2018-08-11T06:39:42.112Z,42.12
2018-08-11T06:40:13.252Z,42.31
2018-08-11T06:40:44.542Z,42.39
2018-08-11T06:41:15.664Z,42.20
2018-08-11T06:41:46.810Z,42.24
2018-08-11T06:42:17.980Z,42.39
2018-08-11T06:42:49.161Z,42.21